sensor_id;sensor_type;location;lat;lon;timestamp;P1;durP1;ratioP1;P2;durP2;ratioP2
39104;SDS011;46464;51.154;13.812;2023-05-15T00:00:22;5.35;;;3.70;;
39104;SDS011;46464;51.154;13.812;2023-05-15T00:02:49;4.15;;;3.03;;
39104;SDS011;46464;51.154;13.812;2023-05-15T00:05:15;3.65;;;3.00;;
39104;SDS011;46464;51.154;13.812;2023-05-15T00:07:42;3.85;;;3.00;;
39104;SDS011;46464;51.154;13.812;2023-05-15T00:10:09;6.00;;;3.40;;
39104;SDS011;46464;51.154;13.812;2023-05-15T00:12:35;3.85;;;2.97;;
39104;SDS011;46464;51.154;13.812;2023-05-15T00:15:02;4.10;;;2.95;;
39104;SDS011;46464;51.154;13.812;2023-05-15T00:17:28;3.60;;;2.90;;
39104;SDS011;46464;51.154;13.812;2023-05-15T00:19:55;3.90;;;3.10;;
39104;SDS011;46464;51.154;13.812;2023-05-15T00:22:24;4.63;;;2.80;;
39104;SDS011;46464;51.154;13.812;2023-05-15T00:24:51;3.92;;;3.20;;
39104;SDS011;46464;51.154;13.812;2023-05-15T00:27:18;4.00;;;3.08;;
39104;SDS011;46464;51.154;13.812;2023-05-15T00:29:45;5.18;;;3.13;;
39104;SDS011;46464;51.154;13.812;2023-05-15T00:32:11;3.90;;;3.10;;
39104;SDS011;46464;51.154;13.812;2023-05-15T00:34:37;5.03;;;3.42;;
39104;SDS011;46464;51.154;13.812;2023-05-15T00:37:04;4.00;;;3.30;;
39104;SDS011;46464;51.154;13.812;2023-05-15T00:39:30;3.83;;;3.15;;
39104;SDS011;46464;51.154;13.812;2023-05-15T00:41:57;3.53;;;3.10;;
39104;SDS011;46464;51.154;13.812;2023-05-15T00:44:27;3.80;;;3.20;;
39104;SDS011;46464;51.154;13.812;2023-05-15T00:46:56;4.57;;;3.15;;
39104;SDS011;46464;51.154;13.812;2023-05-15T00:49:24;3.75;;;3.20;;
39104;SDS011;46464;51.154;13.812;2023-05-15T00:51:57;4.10;;;3.35;;
39104;SDS011;46464;51.154;13.812;2023-05-15T00:54:27;4.03;;;3.45;;
39104;SDS011;46464;51.154;13.812;2023-05-15T00:56:55;3.22;;;2.90;;
39104;SDS011;46464;51.154;13.812;2023-05-15T00:59:24;4.03;;;3.53;;
39104;SDS011;46464;51.154;13.812;2023-05-15T01:01:52;6.35;;;3.90;;
39104;SDS011;46464;51.154;13.812;2023-05-15T01:04:19;4.68;;;3.47;;
39104;SDS011;46464;51.154;13.812;2023-05-15T01:06:47;5.15;;;3.80;;
39104;SDS011;46464;51.154;13.812;2023-05-15T01:09:14;5.78;;;4.22;;
39104;SDS011;46464;51.154;13.812;2023-05-15T01:14:08;5.45;;;3.50;;
39104;SDS011;46464;51.154;13.812;2023-05-15T01:16:34;5.28;;;3.47;;
39104;SDS011;46464;51.154;13.812;2023-05-15T01:19:01;5.28;;;3.85;;
39104;SDS011;46464;51.154;13.812;2023-05-15T01:29:23;4.82;;;3.50;;
39104;SDS011;46464;51.154;13.812;2023-05-15T01:31:56;4.20;;;3.63;;
39104;SDS011;46464;51.154;13.812;2023-05-15T01:34:33;4.53;;;3.55;;
39104;SDS011;46464;51.154;13.812;2023-05-15T01:37:24;5.40;;;3.78;;
39104;SDS011;46464;51.154;13.812;2023-05-15T01:40:00;6.07;;;3.70;;
39104;SDS011;46464;51.154;13.812;2023-05-15T01:42:30;5.17;;;4.20;;
39104;SDS011;46464;51.154;13.812;2023-05-15T01:45:01;5.13;;;4.00;;
39104;SDS011;46464;51.154;13.812;2023-05-15T01:47:33;13.00;;;4.57;;
39104;SDS011;46464;51.154;13.812;2023-05-15T01:50:04;6.60;;;4.72;;
39104;SDS011;46464;51.154;13.812;2023-05-15T01:52:35;7.50;;;4.85;;
39104;SDS011;46464;51.154;13.812;2023-05-15T01:55:06;5.95;;;4.00;;
39104;SDS011;46464;51.154;13.812;2023-05-15T01:57:34;6.60;;;5.03;;
39104;SDS011;46464;51.154;13.812;2023-05-15T02:00:01;8.02;;;4.95;;
39104;SDS011;46464;51.154;13.812;2023-05-15T02:02:29;7.28;;;4.90;;
39104;SDS011;46464;51.154;13.812;2023-05-15T02:07:23;6.38;;;4.20;;
39104;SDS011;46464;51.154;13.812;2023-05-15T02:09:51;4.65;;;4.03;;
39104;SDS011;46464;51.154;13.812;2023-05-15T02:12:19;5.90;;;4.57;;
39104;SDS011;46464;51.154;13.812;2023-05-15T02:14:47;6.03;;;4.50;;
39104;SDS011;46464;51.154;13.812;2023-05-15T02:17:14;5.60;;;4.28;;
39104;SDS011;46464;51.154;13.812;2023-05-15T02:22:08;4.78;;;3.90;;
39104;SDS011;46464;51.154;13.812;2023-05-15T02:36:10;4.68;;;4.00;;
39104;SDS011;46464;51.154;13.812;2023-05-15T02:38:48;4.45;;;3.90;;
39104;SDS011;46464;51.154;13.812;2023-05-15T02:41:18;5.97;;;4.18;;
39104;SDS011;46464;51.154;13.812;2023-05-15T02:46:14;7.28;;;4.28;;
39104;SDS011;46464;51.154;13.812;2023-05-15T02:48:41;4.43;;;3.60;;
39104;SDS011;46464;51.154;13.812;2023-05-15T02:51:09;5.30;;;4.25;;
39104;SDS011;46464;51.154;13.812;2023-05-15T02:53:39;4.60;;;4.10;;
39104;SDS011;46464;51.154;13.812;2023-05-15T02:56:07;5.95;;;3.97;;
39104;SDS011;46464;51.154;13.812;2023-05-15T02:58:34;6.75;;;4.20;;
39104;SDS011;46464;51.154;13.812;2023-05-15T03:01:02;6.00;;;4.82;;
39104;SDS011;46464;51.154;13.812;2023-05-15T03:03:29;5.10;;;4.43;;
39104;SDS011;46464;51.154;13.812;2023-05-15T03:05:56;5.30;;;4.78;;
39104;SDS011;46464;51.154;13.812;2023-05-15T03:08:22;5.30;;;4.45;;
39104;SDS011;46464;51.154;13.812;2023-05-15T03:10:49;9.05;;;5.97;;
39104;SDS011;46464;51.154;13.812;2023-05-15T03:13:16;5.30;;;4.70;;
39104;SDS011;46464;51.154;13.812;2023-05-15T03:15:43;5.82;;;4.97;;
39104;SDS011;46464;51.154;13.812;2023-05-15T03:18:10;5.80;;;5.15;;
39104;SDS011;46464;51.154;13.812;2023-05-15T03:20:37;6.68;;;5.05;;
39104;SDS011;46464;51.154;13.812;2023-05-15T03:23:03;6.13;;;5.15;;
39104;SDS011;46464;51.154;13.812;2023-05-15T03:25:30;5.85;;;4.88;;
39104;SDS011;46464;51.154;13.812;2023-05-15T03:30:24;6.20;;;4.72;;
39104;SDS011;46464;51.154;13.812;2023-05-15T03:32:51;5.57;;;4.80;;
39104;SDS011;46464;51.154;13.812;2023-05-15T03:35:17;5.18;;;4.32;;
39104;SDS011;46464;51.154;13.812;2023-05-15T03:37:44;5.53;;;4.53;;
39104;SDS011;46464;51.154;13.812;2023-05-15T03:40:11;5.93;;;5.10;;
39104;SDS011;46464;51.154;13.812;2023-05-15T03:42:37;7.40;;;5.25;;
39104;SDS011;46464;51.154;13.812;2023-05-15T03:45:04;6.95;;;5.40;;
39104;SDS011;46464;51.154;13.812;2023-05-15T03:47:31;7.50;;;5.82;;
39104;SDS011;46464;51.154;13.812;2023-05-15T03:49:58;5.80;;;5.20;;
39104;SDS011;46464;51.154;13.812;2023-05-15T03:52:24;6.40;;;5.80;;
39104;SDS011;46464;51.154;13.812;2023-05-15T03:54:51;5.25;;;4.65;;
39104;SDS011;46464;51.154;13.812;2023-05-15T03:57:17;5.95;;;5.35;;
39104;SDS011;46464;51.154;13.812;2023-05-15T03:59:44;5.97;;;5.35;;
39104;SDS011;46464;51.154;13.812;2023-05-15T04:02:10;6.00;;;5.40;;
39104;SDS011;46464;51.154;13.812;2023-05-15T04:04:37;6.82;;;5.15;;
39104;SDS011;46464;51.154;13.812;2023-05-15T04:07:04;5.78;;;5.10;;
39104;SDS011;46464;51.154;13.812;2023-05-15T04:09:31;6.30;;;5.13;;
39104;SDS011;46464;51.154;13.812;2023-05-15T04:11:57;5.53;;;5.00;;
39104;SDS011;46464;51.154;13.812;2023-05-15T04:14:24;7.00;;;5.75;;
39104;SDS011;46464;51.154;13.812;2023-05-15T04:16:50;6.78;;;5.60;;
39104;SDS011;46464;51.154;13.812;2023-05-15T04:19:17;6.13;;;5.53;;
39104;SDS011;46464;51.154;13.812;2023-05-15T04:21:44;5.68;;;5.10;;
39104;SDS011;46464;51.154;13.812;2023-05-15T04:24:10;7.22;;;5.65;;
39104;SDS011;46464;51.154;13.812;2023-05-15T04:26:37;6.30;;;5.50;;
39104;SDS011;46464;51.154;13.812;2023-05-15T04:29:03;7.22;;;6.53;;
39104;SDS011;46464;51.154;13.812;2023-05-15T04:31:31;9.95;;;6.38;;
39104;SDS011;46464;51.154;13.812;2023-05-15T04:33:58;7.38;;;6.68;;
39104;SDS011;46464;51.154;13.812;2023-05-15T04:36:24;6.78;;;6.07;;
39104;SDS011;46464;51.154;13.812;2023-05-15T04:38:51;6.95;;;6.13;;
39104;SDS011;46464;51.154;13.812;2023-05-15T04:41:17;8.32;;;6.70;;
39104;SDS011;46464;51.154;13.812;2023-05-15T04:43:44;8.80;;;7.00;;
39104;SDS011;46464;51.154;13.812;2023-05-15T04:48:37;7.70;;;6.80;;
39104;SDS011;46464;51.154;13.812;2023-05-15T04:51:04;8.35;;;6.95;;
39104;SDS011;46464;51.154;13.812;2023-05-15T04:53:30;8.82;;;7.93;;
39104;SDS011;46464;51.154;13.812;2023-05-15T04:55:57;9.93;;;8.43;;
39104;SDS011;46464;51.154;13.812;2023-05-15T04:58:23;13.10;;;11.05;;
39104;SDS011;46464;51.154;13.812;2023-05-15T05:00:50;10.55;;;9.45;;
39104;SDS011;46464;51.154;13.812;2023-05-15T05:03:16;11.25;;;10.10;;
39104;SDS011;46464;51.154;13.812;2023-05-15T05:05:43;11.00;;;9.60;;
39104;SDS011;46464;51.154;13.812;2023-05-15T05:08:09;11.32;;;9.57;;
39104;SDS011;46464;51.154;13.812;2023-05-15T05:10:36;10.68;;;9.30;;
39104;SDS011;46464;51.154;13.812;2023-05-15T05:13:02;15.82;;;14.20;;
39104;SDS011;46464;51.154;13.812;2023-05-15T05:15:29;12.13;;;10.93;;
39104;SDS011;46464;51.154;13.812;2023-05-15T05:17:56;12.57;;;10.10;;
39104;SDS011;46464;51.154;13.812;2023-05-15T05:20:23;11.73;;;10.48;;
39104;SDS011;46464;51.154;13.812;2023-05-15T05:22:49;13.32;;;10.63;;
39104;SDS011;46464;51.154;13.812;2023-05-15T05:25:16;11.57;;;10.25;;
39104;SDS011;46464;51.154;13.812;2023-05-15T05:27:43;15.20;;;11.20;;
39104;SDS011;46464;51.154;13.812;2023-05-15T05:30:10;11.90;;;10.63;;
39104;SDS011;46464;51.154;13.812;2023-05-15T05:32:37;10.73;;;9.00;;
39104;SDS011;46464;51.154;13.812;2023-05-15T05:35:03;12.02;;;10.13;;
39104;SDS011;46464;51.154;13.812;2023-05-15T05:37:31;11.65;;;9.77;;
39104;SDS011;46464;51.154;13.812;2023-05-15T05:39:57;10.65;;;9.55;;
39104;SDS011;46464;51.154;13.812;2023-05-15T05:42:24;10.65;;;9.35;;
39104;SDS011;46464;51.154;13.812;2023-05-15T05:44:50;11.15;;;9.90;;
39104;SDS011;46464;51.154;13.812;2023-05-15T05:47:16;10.45;;;9.40;;
39104;SDS011;46464;51.154;13.812;2023-05-15T05:49:43;11.20;;;9.40;;
39104;SDS011;46464;51.154;13.812;2023-05-15T05:52:13;10.52;;;8.98;;
39104;SDS011;46464;51.154;13.812;2023-05-15T05:54:41;11.73;;;10.18;;
39104;SDS011;46464;51.154;13.812;2023-05-15T05:57:08;11.07;;;8.65;;
39104;SDS011;46464;51.154;13.812;2023-05-15T05:59:35;8.60;;;7.70;;
39104;SDS011;46464;51.154;13.812;2023-05-15T06:02:02;10.35;;;8.95;;
39104;SDS011;46464;51.154;13.812;2023-05-15T06:04:30;10.75;;;7.68;;
39104;SDS011;46464;51.154;13.812;2023-05-15T06:06:59;10.90;;;9.65;;
39104;SDS011;46464;51.154;13.812;2023-05-15T06:14:19;9.02;;;7.97;;
39104;SDS011;46464;51.154;13.812;2023-05-15T06:19:12;10.20;;;8.07;;
39104;SDS011;46464;51.154;13.812;2023-05-15T06:21:39;10.07;;;8.20;;
39104;SDS011;46464;51.154;13.812;2023-05-15T06:24:06;13.18;;;8.40;;
39104;SDS011;46464;51.154;13.812;2023-05-15T06:26:32;13.50;;;8.65;;
39104;SDS011;46464;51.154;13.812;2023-05-15T06:28:59;19.98;;;15.70;;
39104;SDS011;46464;51.154;13.812;2023-05-15T06:31:26;11.23;;;8.90;;
39104;SDS011;46464;51.154;13.812;2023-05-15T06:33:52;10.75;;;8.38;;
39104;SDS011;46464;51.154;13.812;2023-05-15T06:36:19;9.70;;;8.30;;
39104;SDS011;46464;51.154;13.812;2023-05-15T06:38:45;9.35;;;8.05;;
39104;SDS011;46464;51.154;13.812;2023-05-15T06:41:12;9.77;;;7.70;;
39104;SDS011;46464;51.154;13.812;2023-05-15T06:43:38;7.85;;;7.00;;
39104;SDS011;46464;51.154;13.812;2023-05-15T06:46:05;9.45;;;7.75;;
39104;SDS011;46464;51.154;13.812;2023-05-15T06:48:31;8.30;;;7.38;;
39104;SDS011;46464;51.154;13.812;2023-05-15T06:50:58;8.60;;;7.70;;
39104;SDS011;46464;51.154;13.812;2023-05-15T06:53:24;8.43;;;7.43;;
39104;SDS011;46464;51.154;13.812;2023-05-15T06:55:51;7.93;;;7.13;;
39104;SDS011;46464;51.154;13.812;2023-05-15T06:58:18;8.45;;;7.45;;
39104;SDS011;46464;51.154;13.812;2023-05-15T07:00:44;8.48;;;6.78;;
39104;SDS011;46464;51.154;13.812;2023-05-15T07:03:11;10.20;;;6.68;;
39104;SDS011;46464;51.154;13.812;2023-05-15T07:05:39;8.27;;;7.47;;
39104;SDS011;46464;51.154;13.812;2023-05-15T07:08:06;7.90;;;6.07;;
39104;SDS011;46464;51.154;13.812;2023-05-15T07:10:32;7.65;;;6.60;;
39104;SDS011;46464;51.154;13.812;2023-05-15T07:12:59;9.60;;;5.57;;
39104;SDS011;46464;51.154;13.812;2023-05-15T07:15:25;6.72;;;5.55;;
39104;SDS011;46464;51.154;13.812;2023-05-15T07:17:52;6.75;;;6.00;;
39104;SDS011;46464;51.154;13.812;2023-05-15T07:20:18;8.18;;;6.22;;
39104;SDS011;46464;51.154;13.812;2023-05-15T07:22:45;8.82;;;5.93;;
39104;SDS011;46464;51.154;13.812;2023-05-15T07:27:49;7.80;;;6.60;;
39104;SDS011;46464;51.154;13.812;2023-05-15T07:30:15;7.95;;;6.47;;
39104;SDS011;46464;51.154;13.812;2023-05-15T07:32:42;7.85;;;5.82;;
39104;SDS011;46464;51.154;13.812;2023-05-15T07:37:37;7.10;;;6.40;;
39104;SDS011;46464;51.154;13.812;2023-05-15T07:40:04;8.55;;;7.75;;
39104;SDS011;46464;51.154;13.812;2023-05-15T07:42:31;8.73;;;6.43;;
39104;SDS011;46464;51.154;13.812;2023-05-15T07:44:57;8.40;;;5.88;;
39104;SDS011;46464;51.154;13.812;2023-05-15T07:47:24;8.45;;;6.82;;
39104;SDS011;46464;51.154;13.812;2023-05-15T07:49:51;8.00;;;7.05;;
39104;SDS011;46464;51.154;13.812;2023-05-15T07:52:18;8.57;;;6.30;;
39104;SDS011;46464;51.154;13.812;2023-05-15T07:54:44;7.03;;;6.32;;
39104;SDS011;46464;51.154;13.812;2023-05-15T07:57:11;8.68;;;6.80;;
39104;SDS011;46464;51.154;13.812;2023-05-15T07:59:38;11.43;;;5.88;;
39104;SDS011;46464;51.154;13.812;2023-05-15T08:02:05;8.35;;;6.38;;
39104;SDS011;46464;51.154;13.812;2023-05-15T08:04:32;8.13;;;5.97;;
39104;SDS011;46464;51.154;13.812;2023-05-15T08:06:59;8.70;;;6.45;;
39104;SDS011;46464;51.154;13.812;2023-05-15T08:09:25;6.97;;;6.03;;
39104;SDS011;46464;51.154;13.812;2023-05-15T08:11:54;8.65;;;6.68;;
39104;SDS011;46464;51.154;13.812;2023-05-15T08:14:21;7.60;;;6.63;;
39104;SDS011;46464;51.154;13.812;2023-05-15T08:16:48;7.80;;;6.22;;
39104;SDS011;46464;51.154;13.812;2023-05-15T08:19:16;7.53;;;6.03;;
39104;SDS011;46464;51.154;13.812;2023-05-15T08:21:43;8.43;;;6.47;;
39104;SDS011;46464;51.154;13.812;2023-05-15T08:24:09;9.02;;;6.47;;
39104;SDS011;46464;51.154;13.812;2023-05-15T08:26:36;8.13;;;6.50;;
39104;SDS011;46464;51.154;13.812;2023-05-15T08:29:02;7.97;;;6.82;;
39104;SDS011;46464;51.154;13.812;2023-05-15T08:31:29;8.60;;;6.60;;
39104;SDS011;46464;51.154;13.812;2023-05-15T08:33:55;9.13;;;6.70;;
39104;SDS011;46464;51.154;13.812;2023-05-15T08:36:22;8.40;;;6.55;;
39104;SDS011;46464;51.154;13.812;2023-05-15T08:38:49;11.18;;;6.70;;
39104;SDS011;46464;51.154;13.812;2023-05-15T08:41:20;11.15;;;7.07;;
39104;SDS011;46464;51.154;13.812;2023-05-15T08:44:05;9.10;;;7.25;;
39104;SDS011;46464;51.154;13.812;2023-05-15T08:46:34;8.23;;;7.43;;
39104;SDS011;46464;51.154;13.812;2023-05-15T08:49:02;7.38;;;6.47;;
39104;SDS011;46464;51.154;13.812;2023-05-15T08:51:43;8.68;;;6.80;;
39104;SDS011;46464;51.154;13.812;2023-05-15T08:54:09;10.20;;;7.28;;
39104;SDS011;46464;51.154;13.812;2023-05-15T08:56:36;14.85;;;8.07;;
39104;SDS011;46464;51.154;13.812;2023-05-15T08:59:03;7.57;;;6.70;;
39104;SDS011;46464;51.154;13.812;2023-05-15T09:01:30;8.93;;;7.90;;
39104;SDS011;46464;51.154;13.812;2023-05-15T09:03:57;9.38;;;7.15;;
39104;SDS011;46464;51.154;13.812;2023-05-15T09:06:24;8.38;;;7.30;;
39104;SDS011;46464;51.154;13.812;2023-05-15T09:11:22;9.40;;;7.57;;
39104;SDS011;46464;51.154;13.812;2023-05-15T09:13:49;9.07;;;7.43;;
39104;SDS011;46464;51.154;13.812;2023-05-15T09:16:16;9.00;;;8.07;;
39104;SDS011;46464;51.154;13.812;2023-05-15T09:18:42;15.10;;;7.97;;
39104;SDS011;46464;51.154;13.812;2023-05-15T09:21:23;8.85;;;7.95;;
39104;SDS011;46464;51.154;13.812;2023-05-15T09:23:54;10.40;;;7.25;;
39104;SDS011;46464;51.154;13.812;2023-05-15T09:26:41;13.30;;;7.95;;
39104;SDS011;46464;51.154;13.812;2023-05-15T09:29:08;10.57;;;7.70;;
39104;SDS011;46464;51.154;13.812;2023-05-15T09:31:34;9.15;;;8.05;;
39104;SDS011;46464;51.154;13.812;2023-05-15T09:34:01;10.00;;;9.00;;
39104;SDS011;46464;51.154;13.812;2023-05-15T09:36:29;11.15;;;7.63;;
39104;SDS011;46464;51.154;13.812;2023-05-15T09:38:58;10.23;;;7.72;;
39104;SDS011;46464;51.154;13.812;2023-05-15T09:41:26;11.25;;;8.57;;
39104;SDS011;46464;51.154;13.812;2023-05-15T09:43:53;9.07;;;7.95;;
39104;SDS011;46464;51.154;13.812;2023-05-15T09:46:22;8.38;;;7.53;;
39104;SDS011;46464;51.154;13.812;2023-05-15T09:48:53;9.32;;;7.72;;
39104;SDS011;46464;51.154;13.812;2023-05-15T09:51:20;10.30;;;8.27;;
39104;SDS011;46464;51.154;13.812;2023-05-15T09:56:15;7.95;;;7.22;;
39104;SDS011;46464;51.154;13.812;2023-05-15T09:58:52;8.77;;;7.45;;
39104;SDS011;46464;51.154;13.812;2023-05-15T10:01:20;10.15;;;7.38;;
39104;SDS011;46464;51.154;13.812;2023-05-15T10:04:01;8.32;;;7.43;;
39104;SDS011;46464;51.154;13.812;2023-05-15T10:06:36;10.77;;;8.02;;
39104;SDS011;46464;51.154;13.812;2023-05-15T10:09:08;9.48;;;7.15;;
39104;SDS011;46464;51.154;13.812;2023-05-15T10:11:36;11.13;;;8.60;;
39104;SDS011;46464;51.154;13.812;2023-05-15T10:14:05;10.80;;;9.07;;
39104;SDS011;46464;51.154;13.812;2023-05-15T10:16:34;12.40;;;7.07;;
39104;SDS011;46464;51.154;13.812;2023-05-15T10:19:02;8.40;;;6.72;;
39104;SDS011;46464;51.154;13.812;2023-05-15T10:21:34;7.00;;;6.30;;
39104;SDS011;46464;51.154;13.812;2023-05-15T10:24:02;7.80;;;6.55;;
39104;SDS011;46464;51.154;13.812;2023-05-15T10:26:36;8.70;;;7.25;;
39104;SDS011;46464;51.154;13.812;2023-05-15T10:29:05;7.50;;;6.75;;
39104;SDS011;46464;51.154;13.812;2023-05-15T10:31:35;9.00;;;6.10;;
39104;SDS011;46464;51.154;13.812;2023-05-15T10:34:02;7.90;;;7.20;;
39104;SDS011;46464;51.154;13.812;2023-05-15T10:36:30;8.52;;;6.82;;
39104;SDS011;46464;51.154;13.812;2023-05-15T10:39:02;9.63;;;7.55;;
39104;SDS011;46464;51.154;13.812;2023-05-15T10:41:31;7.20;;;6.45;;
39104;SDS011;46464;51.154;13.812;2023-05-15T10:44:00;7.65;;;6.60;;
39104;SDS011;46464;51.154;13.812;2023-05-15T10:46:28;11.13;;;6.75;;
39104;SDS011;46464;51.154;13.812;2023-05-15T10:48:56;7.28;;;6.43;;
39104;SDS011;46464;51.154;13.812;2023-05-15T10:51:27;8.15;;;5.90;;
39104;SDS011;46464;51.154;13.812;2023-05-15T10:53:56;6.60;;;5.80;;
39104;SDS011;46464;51.154;13.812;2023-05-15T10:56:28;6.20;;;5.60;;
39104;SDS011;46464;51.154;13.812;2023-05-15T10:58:56;9.23;;;7.30;;
39104;SDS011;46464;51.154;13.812;2023-05-15T11:01:23;9.60;;;5.90;;
39104;SDS011;46464;51.154;13.812;2023-05-15T11:04:07;6.68;;;5.53;;
39104;SDS011;46464;51.154;13.812;2023-05-15T11:06:34;7.10;;;5.35;;
39104;SDS011;46464;51.154;13.812;2023-05-15T11:11:54;9.15;;;5.97;;
39104;SDS011;46464;51.154;13.812;2023-05-15T11:14:23;8.60;;;5.43;;
39104;SDS011;46464;51.154;13.812;2023-05-15T11:19:36;8.68;;;6.32;;
39104;SDS011;46464;51.154;13.812;2023-05-15T11:24:50;7.75;;;5.25;;
39104;SDS011;46464;51.154;13.812;2023-05-15T11:27:38;6.45;;;5.63;;
39104;SDS011;46464;51.154;13.812;2023-05-15T11:32:43;9.77;;;5.85;;
39104;SDS011;46464;51.154;13.812;2023-05-15T11:37:57;7.22;;;5.03;;
39104;SDS011;46464;51.154;13.812;2023-05-15T11:40:25;6.78;;;5.97;;
39104;SDS011;46464;51.154;13.812;2023-05-15T11:43:36;8.63;;;5.32;;
39104;SDS011;46464;51.154;13.812;2023-05-15T11:45:55;9.82;;;5.30;;
39104;SDS011;46464;51.154;13.812;2023-05-15T11:48:24;7.75;;;6.10;;
39104;SDS011;46464;51.154;13.812;2023-05-15T11:50:57;6.03;;;4.72;;
39104;SDS011;46464;51.154;13.812;2023-05-15T11:53:25;9.27;;;4.82;;
39104;SDS011;46464;51.154;13.812;2023-05-15T11:55:54;5.88;;;4.60;;
39104;SDS011;46464;51.154;13.812;2023-05-15T11:58:21;7.13;;;4.40;;
39104;SDS011;46464;51.154;13.812;2023-05-15T12:00:49;8.45;;;5.22;;
39104;SDS011;46464;51.154;13.812;2023-05-15T12:03:24;5.68;;;4.78;;
39104;SDS011;46464;51.154;13.812;2023-05-15T12:05:53;6.90;;;5.68;;
39104;SDS011;46464;51.154;13.812;2023-05-15T12:08:25;8.38;;;6.80;;
39104;SDS011;46464;51.154;13.812;2023-05-15T12:11:03;9.43;;;7.20;;
39104;SDS011;46464;51.154;13.812;2023-05-15T12:13:30;8.30;;;6.82;;
39104;SDS011;46464;51.154;13.812;2023-05-15T12:15:58;9.57;;;6.72;;
39104;SDS011;46464;51.154;13.812;2023-05-15T12:18:24;8.98;;;7.28;;
39104;SDS011;46464;51.154;13.812;2023-05-15T12:20:51;8.13;;;7.30;;
39104;SDS011;46464;51.154;13.812;2023-05-15T12:23:20;7.35;;;6.30;;
39104;SDS011;46464;51.154;13.812;2023-05-15T12:25:48;8.15;;;5.88;;
39104;SDS011;46464;51.154;13.812;2023-05-15T12:28:18;6.68;;;5.72;;
39104;SDS011;46464;51.154;13.812;2023-05-15T12:30:45;8.50;;;6.15;;
39104;SDS011;46464;51.154;13.812;2023-05-15T12:33:12;9.32;;;6.57;;
39104;SDS011;46464;51.154;13.812;2023-05-15T12:35:42;8.70;;;6.68;;
39104;SDS011;46464;51.154;13.812;2023-05-15T12:38:14;11.02;;;7.18;;
39104;SDS011;46464;51.154;13.812;2023-05-15T12:40:42;10.48;;;7.90;;
39104;SDS011;46464;51.154;13.812;2023-05-15T12:43:09;9.57;;;6.63;;
39104;SDS011;46464;51.154;13.812;2023-05-15T12:45:38;9.43;;;6.40;;
39104;SDS011;46464;51.154;13.812;2023-05-15T12:48:07;8.18;;;7.00;;
39104;SDS011;46464;51.154;13.812;2023-05-15T12:50:39;6.75;;;6.07;;
39104;SDS011;46464;51.154;13.812;2023-05-15T12:53:06;8.48;;;7.22;;
39104;SDS011;46464;51.154;13.812;2023-05-15T12:55:33;8.52;;;6.43;;
39104;SDS011;46464;51.154;13.812;2023-05-15T12:58:05;7.93;;;6.35;;
39104;SDS011;46464;51.154;13.812;2023-05-15T13:00:33;9.43;;;6.18;;
39104;SDS011;46464;51.154;13.812;2023-05-15T13:03:02;12.02;;;6.50;;
39104;SDS011;46464;51.154;13.812;2023-05-15T13:05:32;10.20;;;6.30;;
39104;SDS011;46464;51.154;13.812;2023-05-15T13:08:00;6.45;;;5.85;;
39104;SDS011;46464;51.154;13.812;2023-05-15T13:10:30;6.88;;;5.43;;
39104;SDS011;46464;51.154;13.812;2023-05-15T13:12:58;6.32;;;5.65;;
39104;SDS011;46464;51.154;13.812;2023-05-15T13:17:58;12.10;;;5.20;;
39104;SDS011;46464;51.154;13.812;2023-05-15T13:20:36;7.32;;;4.47;;
39104;SDS011;46464;51.154;13.812;2023-05-15T13:23:04;6.32;;;3.88;;
39104;SDS011;46464;51.154;13.812;2023-05-15T13:25:31;7.65;;;3.30;;
39104;SDS011;46464;51.154;13.812;2023-05-15T13:27:59;5.40;;;3.33;;
39104;SDS011;46464;51.154;13.812;2023-05-15T13:30:27;5.38;;;2.92;;
39104;SDS011;46464;51.154;13.812;2023-05-15T13:32:54;4.93;;;3.97;;
39104;SDS011;46464;51.154;13.812;2023-05-15T13:35:21;6.30;;;4.32;;
39104;SDS011;46464;51.154;13.812;2023-05-15T13:37:48;7.75;;;4.30;;
39104;SDS011;46464;51.154;13.812;2023-05-15T13:45:08;5.35;;;4.30;;
39104;SDS011;46464;51.154;13.812;2023-05-15T13:47:36;6.43;;;4.07;;
39104;SDS011;46464;51.154;13.812;2023-05-15T13:50:10;6.00;;;4.47;;
39104;SDS011;46464;51.154;13.812;2023-05-15T13:52:39;7.22;;;4.63;;
39104;SDS011;46464;51.154;13.812;2023-05-15T13:55:06;7.05;;;4.90;;
39104;SDS011;46464;51.154;13.812;2023-05-15T13:57:35;6.25;;;5.07;;
39104;SDS011;46464;51.154;13.812;2023-05-15T14:00:04;5.88;;;4.45;;
39104;SDS011;46464;51.154;13.812;2023-05-15T14:02:33;5.65;;;4.95;;
39104;SDS011;46464;51.154;13.812;2023-05-15T14:07:26;8.10;;;4.88;;
39104;SDS011;46464;51.154;13.812;2023-05-15T14:09:52;6.50;;;5.47;;
39104;SDS011;46464;51.154;13.812;2023-05-15T14:12:19;7.00;;;5.03;;
39104;SDS011;46464;51.154;13.812;2023-05-15T14:14:47;6.45;;;4.50;;
39104;SDS011;46464;51.154;13.812;2023-05-15T14:22:06;6.22;;;5.05;;
39104;SDS011;46464;51.154;13.812;2023-05-15T14:24:33;6.20;;;5.30;;
39104;SDS011;46464;51.154;13.812;2023-05-15T14:27:00;9.52;;;6.13;;
39104;SDS011;46464;51.154;13.812;2023-05-15T14:29:27;7.18;;;5.45;;
39104;SDS011;46464;51.154;13.812;2023-05-15T14:31:53;6.97;;;5.93;;
39104;SDS011;46464;51.154;13.812;2023-05-15T14:34:20;10.43;;;6.80;;
39104;SDS011;46464;51.154;13.812;2023-05-15T14:36:48;6.15;;;5.55;;
39104;SDS011;46464;51.154;13.812;2023-05-15T14:39:17;8.18;;;5.72;;
39104;SDS011;46464;51.154;13.812;2023-05-15T14:41:44;7.25;;;4.88;;
39104;SDS011;46464;51.154;13.812;2023-05-15T14:44:11;6.50;;;4.68;;
39104;SDS011;46464;51.154;13.812;2023-05-15T14:46:40;8.48;;;4.18;;
39104;SDS011;46464;51.154;13.812;2023-05-15T14:49:08;4.63;;;3.75;;
39104;SDS011;46464;51.154;13.812;2023-05-15T14:56:27;7.57;;;3.80;;
39104;SDS011;46464;51.154;13.812;2023-05-15T14:58:54;5.13;;;3.65;;
39104;SDS011;46464;51.154;13.812;2023-05-15T15:01:20;3.88;;;3.25;;
39104;SDS011;46464;51.154;13.812;2023-05-15T15:03:47;7.18;;;3.35;;
39104;SDS011;46464;51.154;13.812;2023-05-15T15:06:13;5.00;;;3.65;;
39104;SDS011;46464;51.154;13.812;2023-05-15T15:08:40;4.10;;;3.55;;
39104;SDS011;46464;51.154;13.812;2023-05-15T15:11:07;8.77;;;5.03;;
39104;SDS011;46464;51.154;13.812;2023-05-15T15:13:33;4.22;;;3.33;;
39104;SDS011;46464;51.154;13.812;2023-05-15T15:16:00;6.40;;;3.75;;
39104;SDS011;46464;51.154;13.812;2023-05-15T15:18:27;4.72;;;3.58;;
39104;SDS011;46464;51.154;13.812;2023-05-15T15:20:53;9.60;;;4.18;;
39104;SDS011;46464;51.154;13.812;2023-05-15T15:23:20;6.15;;;3.72;;
39104;SDS011;46464;51.154;13.812;2023-05-15T15:25:46;3.83;;;3.40;;
39104;SDS011;46464;51.154;13.812;2023-05-15T15:28:13;4.25;;;3.50;;
39104;SDS011;46464;51.154;13.812;2023-05-15T15:30:39;6.70;;;3.78;;
39104;SDS011;46464;51.154;13.812;2023-05-15T15:33:08;4.05;;;3.60;;
39104;SDS011;46464;51.154;13.812;2023-05-15T15:35:53;5.45;;;3.75;;
39104;SDS011;46464;51.154;13.812;2023-05-15T15:38:35;7.55;;;3.83;;
39104;SDS011;46464;51.154;13.812;2023-05-15T15:41:01;6.57;;;3.80;;
39104;SDS011;46464;51.154;13.812;2023-05-15T15:43:28;5.32;;;3.70;;
39104;SDS011;46464;51.154;13.812;2023-05-15T15:45:55;4.30;;;3.80;;
39104;SDS011;46464;51.154;13.812;2023-05-15T15:48:21;6.95;;;4.25;;
39104;SDS011;46464;51.154;13.812;2023-05-15T15:50:48;7.07;;;4.00;;
39104;SDS011;46464;51.154;13.812;2023-05-15T15:53:16;4.40;;;3.50;;
39104;SDS011;46464;51.154;13.812;2023-05-15T15:55:43;5.35;;;4.22;;
39104;SDS011;46464;51.154;13.812;2023-05-15T15:58:12;4.75;;;4.07;;
39104;SDS011;46464;51.154;13.812;2023-05-15T16:00:38;5.03;;;4.00;;